Time;durP1;ratioP1;P1;durP2;ratioP2;P2;SDS_P1;SDS_P2;PMS_P1;PMS_P2;Temp;Humidity;BMP_temperature;BMP_pressure;BME280_temperature;BME280_humidity;BME280_pressure;Samples;Min_cycle;Max_cycle;Signal;HPM_P1;HPM_P2
2022/05/14 00:00:41;;;;;;;1999.90;999.90;;;;;;;-143.90;100.00;55194.63;2069680;28;20033;-82
2022/05/14 00:02:02;;;;;;;1999.90;999.90;;;;;;;-143.90;100.00;55087.41;2065901;28;20044;-83
2022/05/14 00:03:23;;;;;;;1999.90;999.90;;;;;;;-143.90;100.00;55061.59;2075842;28;20040;-82
2022/05/14 00:04:44;;;;;;;1999.90;999.90;;;;;;;-143.90;100.00;55099.31;2081916;28;20040;-83
2022/05/14 00:06:07;;;;;;;1999.90;999.90;;;;;;;-143.90;100.00;55123.13;2080678;28;20041;-82
2022/05/14 00:07:28;;;;;;;1999.90;999.90;;;;;;;-143.90;100.00;55097.31;2069993;28;20564;-83
2022/05/14 00:08:49;;;;;;;1999.90;999.90;;;;;;;-143.90;100.00;55107.25;2067632;28;20576;-82
2022/05/14 00:10:10;;;;;;;1999.90;999.90;;;;;;;-143.90;100.00;55079.44;2076250;28;20118;-82
2022/05/14 00:13:12;;;;;;;1999.90;999.90;;;;;;;-143.90;100.00;55071.50;2071774;28;20033;-82
2022/05/14 00:14:32;;;;;;;1999.90;999.90;;;;;;;-143.90;100.00;55119.16;2079427;28;20044;-82
2022/05/14 00:15:53;;;;;;;1999.90;999.90;;;;;;;-143.90;100.00;55107.25;2071321;28;20051;-82
2022/05/14 00:17:14;;;;;;;1999.90;999.90;;;;;;;-143.90;100.00;55075.47;2075603;28;20106;-82
2022/05/14 00:18:35;;;;;;;1999.90;999.90;;;;;;;-143.90;100.00;55047.69;2076466;28;20442;-82
2022/05/14 00:19:56;;;;;;;1999.90;999.90;;;;;;;-143.90;100.00;55093.34;2080366;28;20475;-82
2022/05/14 00:21:16;;;;;;;1999.90;999.90;;;;;;;-143.90;100.00;55079.44;2077547;28;20598;-82
2022/05/14 00:22:37;;;;;;;1999.90;999.90;;;;;;;-143.90;100.00;55071.50;2069364;28;20452;-82
2022/05/14 00:23:58;;;;;;;1999.90;999.90;;;;;;;-143.90;100.00;55091.38;2070096;28;20454;-82
2022/05/14 00:25:19;;;;;;;1999.90;999.90;;;;;;;-143.90;100.00;55089.38;2070507;28;20570;-82
2022/05/14 00:26:40;;;;;;;1999.90;999.90;;;;;;;-143.90;100.00;55131.06;2067235;28;20073;-82
2022/05/14 00:28:01;;;;;;;1999.90;999.90;;;;;;;-143.90;100.00;55095.34;2061372;28;20038;-82
2022/05/14 00:29:21;;;;;;;1999.90;999.90;;;;;;;-143.90;100.00;55101.28;2076564;28;20342;-82
2022/05/14 00:30:42;;;;;;;1999.90;999.90;;;;;;;-143.90;100.00;55101.28;2080987;28;20957;-82
2022/05/14 00:32:03;;;;;;;1999.90;999.90;;;;;;;-143.90;100.00;55039.75;2080466;28;20631;-82
2022/05/14 00:33:24;;;;;;;1999.90;999.90;;;;;;;-143.90;100.00;55119.16;2080041;28;20037;-82
2022/05/14 00:34:45;;;;;;;1999.90;999.90;;;;;;;-143.90;100.00;55063.56;2080750;28;20145;-82
2022/05/14 00:36:06;;;;;;;1999.90;999.90;;;;;;;-143.90;100.00;55055.63;2065418;28;20383;-82
2022/05/14 00:37:27;;;;;;;1999.90;999.90;;;;;;;-143.90;100.00;55067.53;2076688;28;20056;-82
2022/05/14 00:38:48;;;;;;;1999.90;999.90;;;;;;;-143.90;100.00;55039.75;2074611;28;20464;-82
2022/05/14 00:40:16;;;;;;;1999.90;999.90;;;;;;;-143.90;100.00;55127.09;2079843;28;20070;-82
2022/05/14 00:41:38;;;;;;;1999.90;999.90;;;;;;;-143.90;100.00;55055.63;2073246;28;20043;-82
2022/05/14 00:42:59;;;;;;;;;;;;;;;-143.90;100.00;55071.50;2070911;28;20068;-83
2022/05/14 00:44:20;;;;;;;1999.90;999.90;;;;;;;-143.90;100.00;55067.53;2065041;28;19925;-82
2022/05/14 00:45:49;;;;;;;1999.90;999.90;;;;;;;-143.90;100.00;55079.44;2070272;28;20033;-83
2022/05/14 00:47:13;;;;;;;1999.90;999.90;;;;;;;-143.90;100.00;55095.34;2080121;28;20049;-83
2022/05/14 00:48:37;;;;;;;1999.90;999.90;;;;;;;-143.90;100.00;55091.38;2072908;28;20316;-83
2022/05/14 00:49:57;;;;;;;1999.90;999.90;;;;;;;-143.90;100.00;55073.50;2071760;28;20049;-82
2022/05/14 00:51:28;;;;;;;1999.90;999.90;;;;;;;-143.90;100.00;55093.34;2079730;28;21067;-82
2022/05/14 00:52:56;;;;;;;1999.90;999.90;;;;;;;-143.90;100.00;55111.22;2070207;28;20048;-82
2022/05/14 00:54:24;;;;;;;1999.90;999.90;;;;;;;-143.90;100.00;55063.56;2081269;28;20032;-82
2022/05/14 00:55:46;;;;;;;1999.90;999.90;;;;;;;-143.90;100.00;55071.50;2057192;28;20049;-83
2022/05/14 00:57:11;;;;;;;1999.90;999.90;;;;;;;-143.90;100.00;55061.59;2056652;28;20478;-83
2022/05/14 00:58:40;;;;;;;1999.90;999.90;;;;;;;-143.90;100.00;55067.53;2066903;28;20321;-83
2022/05/14 01:00:06;;;;;;;1999.90;999.90;;;;;;;-143.90;100.00;55133.06;2063122;28;20654;-83
2022/05/14 01:01:26;;;;;;;1999.90;999.90;;;;;;;-143.90;100.00;55057.59;2067671;28;20045;-83
2022/05/14 01:02:48;;;;;;;1999.90;999.90;;;;;;;-143.90;100.00;55065.56;2061717;28;20033;-83
2022/05/14 01:04:09;;;;;;;1999.90;999.90;;;;;;;-143.90;100.00;55065.56;2053930;28;20747;-83
2022/05/14 01:05:31;;;;;;;1999.90;999.90;;;;;;;-143.90;100.00;55097.31;2065421;28;20407;-83
2022/05/14 01:06:58;;;;;;;1999.90;999.90;;;;;;;-143.90;100.00;55055.63;2069053;28;20052;-82
2022/05/14 01:08:19;;;;;;;1999.90;999.90;;;;;;;-143.90;100.00;55019.88;2072145;28;20734;-82
2022/05/14 01:09:47;;;;;;;1999.90;999.90;;;;;;;-143.90;100.00;55103.28;2062170;28;20321;-81
2022/05/14 01:11:08;;;;;;;1999.90;999.90;;;;;;;-143.90;100.00;55093.34;2077705;28;20037;-82
2022/05/14 01:12:30;;;;;;;1999.90;999.90;;;;;;;-143.90;100.00;55087.41;2072820;28;20042;-82
2022/05/14 01:13:51;;;;;;;1999.90;999.90;;;;;;;-143.90;100.00;55087.41;2072253;28;20457;-82
2022/05/14 01:15:18;;;;;;;1999.90;999.90;;;;;;;-143.90;100.00;55135.03;2073086;28;20187;-82
2022/05/14 01:16:38;;;;;;;1999.90;999.90;;;;;;;-143.90;100.00;55083.41;2061238;28;20293;-82
2022/05/14 01:18:00;;;;;;;1999.90;999.90;;;;;;;-143.90;100.00;55109.22;2069304;28;20032;-81
2022/05/14 01:19:21;;;;;;;;;;;;;;;-143.90;100.00;55095.34;2079376;28;20037;-82
2022/05/14 01:20:51;;;;;;;1999.90;999.90;;;;;;;-143.90;100.00;55089.38;2075161;28;19917;-82
2022/05/14 01:22:30;;;;;;;1999.90;999.90;;;;;;;-143.90;100.00;55071.50;2066084;28;20038;-82
2022/05/14 01:26:29;;;;;;;1999.90;999.90;;;;;;;-143.90;100.00;55077.47;2082496;28;20091;-82
2022/05/14 01:27:53;;;;;;;1999.90;999.90;;;;;;;-143.90;100.00;55075.47;2066400;28;20042;-82
2022/05/14 01:29:23;;;;;;;1999.90;999.90;;;;;;;-143.90;100.00;55137.03;2062379;28;20245;-82
2022/05/14 01:30:54;;;;;;;1999.90;999.90;;;;;;;-143.90;100.00;55123.13;2071369;28;20036;-82
2022/05/14 01:32:15;;;;;;;1999.90;999.90;;;;;;;-143.90;100.00;55067.53;2072195;28;20048;-82
2022/05/14 01:33:37;;;;;;;1999.90;999.90;;;;;;;-143.90;100.00;55113.22;2063372;28;20045;-83
2022/05/14 01:34:59;;;;;;;1999.90;999.90;;;;;;;-143.90;100.00;55111.22;2067065;28;20030;-83
2022/05/14 01:36:20;;;;;;;1999.90;999.90;;;;;;;-143.90;100.00;55051.66;2079415;28;20510;-82
2022/05/14 01:37:41;;;;;;;1999.90;999.90;;;;;;;-143.90;100.00;55115.19;2063135;28;20035;-82
2022/05/14 01:39:03;;;;;;;1999.90;999.90;;;;;;;-143.90;100.00;55099.31;2071616;28;20056;-82
2022/05/14 01:40:23;;;;;;;1999.90;999.90;;;;;;;-143.90;100.00;55043.72;2071183;28;20589;-82
2022/05/14 01:41:44;;;;;;;1999.90;999.90;;;;;;;-143.90;100.00;55103.28;2068969;28;20087;-82
2022/05/14 01:43:05;;;;;;;1999.90;999.90;;;;;;;-143.90;100.00;55083.41;2068231;28;20037;-82
2022/05/14 01:44:26;;;;;;;1999.90;999.90;;;;;;;-143.90;100.00;55085.41;2057497;28;20304;-83
2022/05/14 01:45:47;;;;;;;1999.90;999.90;;;;;;;-143.90;100.00;55095.34;2056678;28;20074;-82
2022/05/14 01:47:09;;;;;;;1999.90;999.90;;;;;;;-143.90;100.00;55063.56;2064773;28;20057;-82
2022/05/14 01:48:30;;;;;;;1999.90;999.90;;;;;;;-143.90;100.00;55087.41;2059102;28;20044;-82
2022/05/14 01:49:52;;;;;;;1999.90;999.90;;;;;;;-143.90;100.00;55115.19;2059557;28;20038;-82
2022/05/14 01:51:14;;;;;;;1999.90;999.90;;;;;;;-143.90;100.00;55069.53;2074172;28;20039;-82
2022/05/14 01:52:35;;;;;;;1999.90;999.90;;;;;;;-143.90;100.00;55081.44;2069920;28;20054;-83
2022/05/14 01:53:56;;;;;;;1999.90;999.90;;;;;;;-143.90;100.00;55083.41;2077414;28;20461;-82
2022/05/14 01:55:16;;;;;;;1999.90;999.90;;;;;;;-143.90;100.00;55083.41;2063695;28;20049;-82
2022/05/14 01:56:37;;;;;;;1999.90;999.90;;;;;;;-143.90;100.00;55057.59;2063053;28;20042;-82
2022/05/14 01:57:58;;;;;;;1999.90;999.90;;;;;;;-143.90;100.00;55079.44;2067516;28;20952;-82
2022/05/14 01:59:26;;;;;;;1999.90;999.90;;;;;;;-143.90;100.00;55150.94;2073189;28;20276;-83
2022/05/14 02:00:47;;;;;;;1999.90;999.90;;;;;;;-143.90;100.00;55041.72;2072241;28;20110;-82
2022/05/14 02:02:10;;;;;;;1999.90;999.90;;;;;;;-143.90;100.00;55079.44;2067510;28;20029;-83
2022/05/14 02:03:31;;;;;;;1999.90;999.90;;;;;;;-143.90;100.00;55085.41;2075472;28;20148;-82
2022/05/14 02:04:52;;;;;;;1999.90;999.90;;;;;;;-143.90;100.00;55091.38;2080358;28;20025;-82
2022/05/14 02:06:15;;;;;;;1999.90;999.90;;;;;;;-143.90;100.00;55041.72;2071963;28;20044;-82
2022/05/14 02:07:36;;;;;;;1999.90;999.90;;;;;;;-143.90;100.00;55059.59;2069025;28;20033;-83
2022/05/14 02:08:58;;;;;;;1999.90;999.90;;;;;;;-143.90;100.00;55071.50;2078152;28;20119;-83
2022/05/14 02:10:19;;;;;;;1999.90;999.90;;;;;;;-143.90;100.00;55093.34;2062745;28;20029;-82
2022/05/14 02:11:40;;;;;;;1999.90;999.90;;;;;;;-143.90;100.00;55089.38;2066991;28;20040;-83
2022/05/14 02:13:11;;;;;;;1999.90;999.90;;;;;;;-143.90;100.00;55039.75;2067717;28;20849;-83
2022/05/14 02:14:32;;;;;;;1999.90;999.90;;;;;;;-143.90;100.00;55075.47;2060360;28;20575;-82
2022/05/14 02:15:53;;;;;;;1999.90;999.90;;;;;;;-143.90;100.00;55073.50;2063379;28;20432;-83
2022/05/14 02:17:15;;;;;;;1999.90;999.90;;;;;;;-143.90;100.00;55063.56;2066148;28;20049;-83
2022/05/14 02:18:36;;;;;;;1999.90;999.90;;;;;;;-143.90;100.00;55103.28;2068278;28;20286;-82
2022/05/14 02:19:57;;;;;;;1999.90;999.90;;;;;;;-143.90;100.00;55079.44;2069958;28;20042;-83
2022/05/14 02:21:20;;;;;;;1999.90;999.90;;;;;;;-143.90;100.00;55019.88;2070762;28;20036;-83
2022/05/14 02:22:42;;;;;;;1999.90;999.90;;;;;;;-143.90;100.00;55075.47;2063872;28;20045;-83
2022/05/14 02:24:04;;;;;;;1999.90;999.90;;;;;;;-143.90;100.00;55085.41;2074219;28;20029;-83
2022/05/14 02:25:25;;;;;;;1999.90;999.90;;;;;;;-143.90;100.00;55047.69;2080615;28;20056;-82
2022/05/14 02:26:46;;;;;;;1999.90;999.90;;;;;;;-143.90;100.00;55166.81;2063042;28;20029;-83
2022/05/14 02:28:06;;;;;;;1999.90;999.90;;;;;;;-143.90;100.00;55107.25;2074631;28;20365;-84
2022/05/14 02:29:27;;;;;;;1999.90;999.90;;;;;;;-143.90;100.00;55079.44;2072442;28;20037;-82
2022/05/14 02:30:48;;;;;;;1999.90;999.90;;;;;;;-143.90;100.00;55075.47;2076704;28;20126;-82
2022/05/14 02:32:08;;;;;;;1999.90;999.90;;;;;;;-143.90;100.00;55057.59;2068730;28;20045;-82
2022/05/14 02:33:29;;;;;;;1999.90;999.90;;;;;;;-143.90;100.00;55087.41;2076548;28;20497;-82
2022/05/14 02:34:50;;;;;;;1999.90;999.90;;;;;;;-143.90;100.00;55119.16;2056521;28;20064;-82
2022/05/14 02:36:11;;;;;;;1999.90;999.90;;;;;;;-143.90;100.00;55099.31;2062417;28;20682;-82
2022/05/14 02:37:32;;;;;;;1999.90;999.90;;;;;;;-143.90;100.00;55065.56;2075608;28;20048;-82
2022/05/14 02:38:53;;;;;;;1999.90;999.90;;;;;;;-143.90;100.00;55135.03;2064168;28;20349;-82
2022/05/14 02:40:14;;;;;;;1999.90;999.90;;;;;;;-143.90;100.00;55075.47;2066088;28;20076;-83
2022/05/14 02:41:34;;;;;;;1999.90;999.90;;;;;;;-143.90;100.00;55152.91;2061303;28;20206;-82
2022/05/14 02:42:56;;;;;;;1999.90;999.90;;;;;;;-143.90;100.00;55073.50;2074432;28;20033;-82
2022/05/14 02:44:16;;;;;;;1999.90;999.90;;;;;;;-143.90;100.00;55079.44;2070763;28;20049;-82
2022/05/14 02:45:38;;;;;;;1999.90;999.90;;;;;;;-143.90;100.00;55107.25;2078739;28;20128;-83
2022/05/14 02:46:59;;;;;;;1999.90;999.90;;;;;;;-143.90;100.00;55059.59;2067692;28;20069;-82
2022/05/14 02:48:20;;;;;;;1999.90;999.90;;;;;;;-143.90;100.00;55095.34;2077225;28;20581;-82
2022/05/14 02:49:41;;;;;;;1999.90;999.90;;;;;;;-143.90;100.00;55087.41;2073765;28;20038;-82
2022/05/14 02:51:04;;;;;;;1999.90;999.90;;;;;;;-143.90;100.00;55095.34;2079495;28;20896;-83
2022/05/14 02:52:26;;;;;;;1999.90;999.90;;;;;;;-143.90;100.00;55067.53;2075264;28;20041;-82
2022/05/14 02:53:47;;;;;;;1999.90;999.90;;;;;;;-143.90;100.00;55079.44;2067898;28;20038;-83
2022/05/14 02:55:09;;;;;;;1999.90;999.90;;;;;;;-143.90;100.00;55071.50;2068642;28;20052;-82
2022/05/14 02:56:30;;;;;;;1999.90;999.90;;;;;;;-143.90;100.00;55123.13;2079578;28;20045;-83
2022/05/14 02:57:50;;;;;;;1999.90;999.90;;;;;;;-143.90;100.00;55085.41;2081099;28;20131;-83
2022/05/14 02:59:12;;;;;;;1999.90;999.90;;;;;;;-143.90;100.00;55065.56;2081939;28;20295;-83
2022/05/14 03:00:33;;;;;;;1999.90;999.90;;;;;;;-143.90;100.00;55071.50;2081196;28;20585;-83
2022/05/14 03:01:54;;;;;;;1999.90;999.90;;;;;;;-143.90;100.00;55135.03;2074006;28;20033;-83
2022/05/14 03:03:16;;;;;;;1999.90;999.90;;;;;;;-143.90;100.00;55087.41;2068049;28;20025;-83
2022/05/14 03:04:39;;;;;;;1999.90;999.90;;;;;;;-143.90;100.00;55059.59;2067368;28;20054;-83
2022/05/14 03:06:01;;;;;;;1999.90;999.90;;;;;;;-143.90;100.00;55119.16;2076001;28;20029;-82
2022/05/14 03:07:22;;;;;;;1999.90;999.90;;;;;;;-143.90;100.00;55085.41;2071345;28;20091;-83
2022/05/14 03:08:43;;;;;;;1999.90;999.90;;;;;;;-143.90;100.00;55057.59;2070083;28;20068;-82
2022/05/14 03:10:04;;;;;;;1999.90;999.90;;;;;;;-143.90;100.00;55063.56;2078521;28;20032;-82
2022/05/14 03:11:25;;;;;;;1999.90;999.90;;;;;;;-143.90;100.00;55095.34;2075666;28;20036;-83
2022/05/14 03:12:46;;;;;;;;;;;;;;;-143.90;100.00;55089.38;2064519;28;20078;-83
2022/05/14 03:14:09;;;;;;;1999.90;999.90;;;;;;;-143.90;100.00;55103.28;2075582;28;20011;-83
2022/05/14 03:15:30;;;;;;;;;;;;;;;-143.90;100.00;55059.59;2062732;28;20037;-82
2022/05/14 03:16:51;;;;;;;1999.90;999.90;;;;;;;-143.90;100.00;55055.63;2075824;28;19920;-82
2022/05/14 03:18:11;;;;;;;1999.90;999.90;;;;;;;-143.90;100.00;55087.41;2079756;28;20279;-83
2022/05/14 03:19:32;;;;;;;1999.90;999.90;;;;;;;-143.90;100.00;55111.22;2080787;28;20036;-83
2022/05/14 03:20:53;;;;;;;1999.90;999.90;;;;;;;-143.90;100.00;55144.97;2080650;28;20576;-83
2022/05/14 03:22:14;;;;;;;1999.90;999.90;;;;;;;-143.90;100.00;55061.59;2077853;28;20580;-83
2022/05/14 03:23:34;;;;;;;1999.90;999.90;;;;;;;-143.90;100.00;55150.94;2078556;28;20719;-82
2022/05/14 03:24:55;;;;;;;1999.90;999.90;;;;;;;-143.90;100.00;55079.44;2079905;28;20574;-82
2022/05/14 03:26:16;;;;;;;1999.90;999.90;;;;;;;-143.90;100.00;55063.56;2079941;28;20102;-83
2022/05/14 03:27:37;;;;;;;1999.90;999.90;;;;;;;-143.90;100.00;55059.59;2079532;28;20099;-82
2022/05/14 03:28:59;;;;;;;1999.90;999.90;;;;;;;-143.90;100.00;55129.09;2079725;28;20314;-82
2022/05/14 03:30:19;;;;;;;1999.90;999.90;;;;;;;-143.90;100.00;55073.50;2070190;28;20157;-83
2022/05/14 03:31:41;;;;;;;1999.90;999.90;;;;;;;-143.90;100.00;55055.63;2068985;28;20111;-82
2022/05/14 03:33:01;;;;;;;1999.90;999.90;;;;;;;-143.90;100.00;55071.50;2076708;28;20352;-82
2022/05/14 03:34:24;;;;;;;1999.90;999.90;;;;;;;-143.90;100.00;55095.34;2071861;28;20451;-83
2022/05/14 03:35:44;;;;;;;1999.90;999.90;;;;;;;-143.90;100.00;55127.09;2067238;28;20038;-83
2022/05/14 03:37:05;;;;;;;1999.90;999.90;;;;;;;-143.90;100.00;55093.34;2067662;28;20045;-82
2022/05/14 03:38:26;;;;;;;1999.90;999.90;;;;;;;-143.90;100.00;55059.59;2070323;28;20040;-82
2022/05/14 03:39:47;;;;;;;1999.90;999.90;;;;;;;-143.90;100.00;55063.56;2075814;28;20122;-82
2022/05/14 03:41:10;;;;;;;1999.90;999.90;;;;;;;-143.90;100.00;55087.41;2067938;28;20296;-82
2022/05/14 03:42:32;;;;;;;1999.90;999.90;;;;;;;-143.90;100.00;55079.44;2068997;28;20072;-82
2022/05/14 03:43:53;;;;;;;1999.90;999.90;;;;;;;-143.90;100.00;55039.75;2067805;28;20034;-82
2022/05/14 03:45:14;;;;;;;1999.90;999.90;;;;;;;-143.90;100.00;55123.13;2066981;28;20037;-82
2022/05/14 03:46:35;;;;;;;1999.90;999.90;;;;;;;-143.90;100.00;55071.50;2078091;28;20499;-83
2022/05/14 03:47:57;;;;;;;1999.90;999.90;;;;;;;-143.90;100.00;55099.31;2079444;28;20043;-82
2022/05/14 03:49:18;;;;;;;;;;;;;;;-143.90;100.00;55091.38;2064019;28;20285;-82
2022/05/14 03:50:38;;;;;;;1999.90;999.90;;;;;;;-143.90;100.00;55075.47;2068998;28;19921;-82
2022/05/14 03:51:59;;;;;;;1999.90;999.90;;;;;;;-143.90;100.00;55115.19;2067161;28;20598;-82
2022/05/14 03:53:20;;;;;;;1999.90;999.90;;;;;;;-143.90;100.00;55087.41;2068463;28;20029;-83
2022/05/14 03:54:43;;;;;;;1999.90;999.90;;;;;;;-143.90;100.00;55087.41;2077362;28;20052;-82
2022/05/14 03:56:05;;;;;;;1999.90;999.90;;;;;;;-143.90;100.00;55077.47;2058291;28;20108;-83
2022/05/14 03:57:27;;;;;;;1999.90;999.90;;;;;;;-143.90;100.00;55067.53;2073412;28;20036;-82
2022/05/14 03:58:48;;;;;;;;;;;;;;;-143.90;100.00;55083.41;2069574;28;20550;-82
2022/05/14 04:00:11;;;;;;;1999.90;999.90;;;;;;;-143.90;100.00;55111.22;2060527;28;19933;-82
2022/05/14 04:01:36;;;;;;;1999.90;999.90;;;;;;;-143.90;100.00;55097.31;2058229;28;20048;-82
2022/05/14 04:02:57;;;;;;;1999.90;999.90;;;;;;;-143.90;100.00;55075.47;2067225;28;20036;-83
2022/05/14 04:04:18;;;;;;;1999.90;999.90;;;;;;;-143.90;100.00;55095.34;2058144;28;20095;-82
2022/05/14 04:05:39;;;;;;;1999.90;999.90;;;;;;;-143.90;100.00;55111.22;2058184;28;20428;-83
2022/05/14 04:07:00;;;;;;;1999.90;999.90;;;;;;;-143.90;100.00;55075.47;2066825;28;20044;-82
2022/05/14 04:08:21;;;;;;;1999.90;999.90;;;;;;;-143.90;100.00;55123.13;2068001;28;20041;-82
2022/05/14 04:09:41;;;;;;;1999.90;999.90;;;;;;;-143.90;100.00;55103.28;2070308;28;20084;-82
2022/05/14 04:11:02;;;;;;;1999.90;999.90;;;;;;;-143.90;100.00;55075.47;2059869;28;20396;-82
2022/05/14 04:12:23;;;;;;;1999.90;999.90;;;;;;;-143.90;100.00;55107.25;2073596;28;20487;-82
2022/05/14 04:13:44;;;;;;;1999.90;999.90;;;;;;;-143.90;100.00;55091.38;2072686;28;20037;-82
2022/05/14 04:15:09;;;;;;;1999.90;999.90;;;;;;;-143.90;100.00;55113.22;2077435;28;20123;-83
2022/05/14 04:16:30;;;;;;;1999.90;999.90;;;;;;;-143.90;100.00;55075.47;2062230;28;20053;-82
2022/05/14 04:17:52;;;;;;;1999.90;999.90;;;;;;;-143.90;100.00;55055.63;2059562;28;20048;-82
2022/05/14 04:19:12;;;;;;;;;;;;;;;-143.90;100.00;55071.50;2067393;28;20535;-82
2022/05/14 04:20:33;;;;;;;1999.90;999.90;;;;;;;-143.90;100.00;55109.22;2068697;28;20015;-82
2022/05/14 04:21:54;;;;;;;1999.90;999.90;;;;;;;-143.90;100.00;55099.31;2064681;28;20033;-82
2022/05/14 04:23:15;;;;;;;1999.90;999.90;;;;;;;-143.90;100.00;55087.41;2067220;28;20041;-82
2022/05/14 04:24:36;;;;;;;1999.90;999.90;;;;;;;-143.90;100.00;55083.41;2064393;28;20276;-82
2022/05/14 04:25:58;;;;;;;1999.90;999.90;;;;;;;-143.90;100.00;55099.31;2067464;28;20756;-82
2022/05/14 04:27:19;;;;;;;1999.90;999.90;;;;;;;-143.90;100.00;55071.50;2067446;28;20040;-82
2022/05/14 04:28:40;;;;;;;1999.90;999.90;;;;;;;-143.90;100.00;55111.22;2060566;28;20076;-82
2022/05/14 04:30:01;;;;;;;1999.90;999.90;;;;;;;-143.90;100.00;55087.41;2071850;28;20491;-82
2022/05/14 04:31:22;;;;;;;1999.90;999.90;;;;;;;-143.90;100.00;55051.66;2071370;28;20032;-82
2022/05/14 04:32:44;;;;;;;1999.90;999.90;;;;;;;-143.90;100.00;55071.50;2066593;28;20464;-82
2022/05/14 04:34:04;;;;;;;1999.90;999.90;;;;;;;-143.90;100.00;55089.38;2056848;28;20041;-82
2022/05/14 04:35:25;;;;;;;1999.90;999.90;;;;;;;-143.90;100.00;55095.34;2064007;28;20029;-81
2022/05/14 04:36:46;;;;;;;1999.90;999.90;;;;;;;-143.90;100.00;55071.50;2059084;28;20022;-81
2022/05/14 04:38:07;;;;;;;1999.90;999.90;;;;;;;-143.90;100.00;55129.09;2063798;28;21167;-81
2022/05/14 04:39:33;;;;;;;1999.90;999.90;;;;;;;-143.90;100.00;55091.38;2075900;28;20040;-82
2022/05/14 04:40:55;;;;;;;1999.90;999.90;;;;;;;-143.90;100.00;55111.22;2071576;28;20041;-81
2022/05/14 04:42:16;;;;;;;1999.90;999.90;;;;;;;-143.90;100.00;55083.41;2069248;28;20335;-81
2022/05/14 04:43:37;;;;;;;1999.90;999.90;;;;;;;-143.90;100.00;55099.31;2058396;28;20038;-82
2022/05/14 04:44:58;;;;;;;1999.90;999.90;;;;;;;-143.90;100.00;55087.41;2064218;28;20026;-81
2022/05/14 04:46:19;;;;;;;1999.90;999.90;;;;;;;-143.90;100.00;55113.22;2052279;28;20046;-81
2022/05/14 04:47:41;;;;;;;1999.90;999.90;;;;;;;-143.90;100.00;55067.53;2062672;28;20276;-81
2022/05/14 04:49:03;;;;;;;1999.90;999.90;;;;;;;-143.90;100.00;55039.75;2068405;28;20335;-81
2022/05/14 04:50:24;;;;;;;1999.90;999.90;;;;;;;-143.90;100.00;55111.22;2054108;28;20065;-82
2022/05/14 04:51:54;;;;;;;1999.90;999.90;;;;;;;-143.90;100.00;55031.78;2071781;28;20545;-81
2022/05/14 04:53:15;;;;;;;1999.90;999.90;;;;;;;-143.90;100.00;55087.41;2063334;28;20037;-82
2022/05/14 04:54:37;;;;;;;1999.90;999.90;;;;;;;-143.90;100.00;55079.44;2057762;28;20052;-82
2022/05/14 04:55:57;;;;;;;1999.90;999.90;;;;;;;-143.90;100.00;55119.16;2055956;28;20087;-81
2022/05/14 04:57:19;;;;;;;1999.90;999.90;;;;;;;-143.90;100.00;55077.47;2065173;28;20064;-82
2022/05/14 04:58:40;;;;;;;1999.90;999.90;;;;;;;-143.90;100.00;55047.69;2067651;28;20079;-82
2022/05/14 05:00:02;;;;;;;1999.90;999.90;;;;;;;-143.90;100.00;55025.84;2069523;28;20069;-83
2022/05/14 05:01:24;;;;;;;1999.90;999.90;;;;;;;-143.90;100.00;55083.41;2069595;28;20116;-82
2022/05/14 05:04:26;;;;;;;1999.90;999.90;;;;;;;-143.90;100.00;55051.66;2073399;28;20620;-82
2022/05/14 05:05:58;;;;;;;1999.90;999.90;;;;;;;-143.90;100.00;55079.44;2078916;28;20565;-82
2022/05/14 05:07:19;;;;;;;1999.90;999.90;;;;;;;-143.90;100.00;55051.66;2073382;28;20045;-82
2022/05/14 05:08:40;;;;;;;;;;;;;;;-143.90;100.00;55083.41;2070336;28;20084;-82
2022/05/14 05:10:01;;;;;;;1999.90;999.90;;;;;;;-143.90;100.00;55039.75;2068545;28;19921;-82
2022/05/14 05:11:22;;;;;;;1999.90;999.90;;;;;;;-143.90;100.00;55023.84;2077578;28;20710;-82
2022/05/14 05:12:44;;;;;;;1999.90;999.90;;;;;;;-143.90;100.00;55121.16;2072913;28;20045;-82
2022/05/14 05:14:04;;;;;;;1999.90;999.90;;;;;;;-143.90;100.00;55075.47;2079293;28;20043;-82
2022/05/14 05:15:25;;;;;;;1999.90;999.90;;;;;;;-143.90;100.00;55075.47;2082155;28;20041;-82
2022/05/14 05:18:55;;;;;;;1999.90;999.90;;;;;;;-143.90;100.00;55091.38;2079395;28;20056;-82
2022/05/14 05:20:15;;;;;;;1999.90;999.90;;;;;;;-143.90;100.00;55063.56;2079720;28;20079;-82
2022/05/14 05:21:36;;;;;;;1999.90;999.90;;;;;;;-143.90;100.00;55043.72;2071965;28;20041;-82
2022/05/14 05:22:57;;;;;;;1999.90;999.90;;;;;;;-143.90;100.00;55111.22;2077677;28;20119;-82
2022/05/14 05:24:17;;;;;;;1999.90;999.90;;;;;;;-143.90;100.00;55071.50;2072608;28;20316;-82
2022/05/14 05:25:38;;;;;;;1999.90;999.90;;;;;;;-143.90;100.00;55061.59;2078189;28;20040;-82
2022/05/14 05:26:58;;;;;;;1999.90;999.90;;;;;;;-143.90;100.00;55067.53;2080832;28;20048;-82
2022/05/14 05:28:21;;;;;;;1999.90;999.90;;;;;;;-143.90;100.00;55013.94;2070320;28;20115;-82
2022/05/14 05:29:41;;;;;;;1999.90;999.90;;;;;;;-143.90;100.00;55015.91;2075614;28;20048;-82
2022/05/14 05:31:02;;;;;;;1999.90;999.90;;;;;;;-143.90;100.00;55091.38;2072155;28;20184;-82
2022/05/14 05:32:23;;;;;;;1999.90;999.90;;;;;;;-143.90;100.00;55017.91;2076740;28;20033;-82
2022/05/14 05:33:43;;;;;;;1999.90;999.90;;;;;;;-143.90;100.00;55041.72;2072603;28;20045;-82
2022/05/14 05:35:05;;;;;;;1999.90;999.90;;;;;;;-143.90;100.00;55043.72;2077179;28;20032;-83
2022/05/14 05:36:26;;;;;;;1999.90;999.90;;;;;;;-143.90;100.00;55025.84;2079735;28;20041;-82
2022/05/14 05:37:48;;;;;;;1999.90;999.90;;;;;;;-143.90;100.00;55007.97;2081341;28;20059;-83
2022/05/14 05:39:10;;;;;;;1999.90;999.90;;;;;;;-143.90;100.00;55007.97;2080858;28;20417;-82
2022/05/14 05:40:31;;;;;;;1999.90;999.90;;;;;;;-143.90;97.51;55017.91;2078566;28;20155;-82
2022/05/14 05:41:52;;;;;;;1999.90;999.90;;;;;;;-143.90;94.90;54964.28;2081023;28;20048;-83
2022/05/14 05:43:18;;;;;;;1999.90;999.90;;;;;;;-143.90;92.08;55023.84;2080996;28;20112;-82
2022/05/14 05:44:39;;;;;;;1999.90;999.90;;;;;;;-143.90;90.97;55023.84;2070110;28;20079;-81
2022/05/14 05:46:00;;;;;;;1999.90;999.90;;;;;;;-143.90;88.99;55059.59;2077882;28;20071;-82
2022/05/14 05:47:20;;;;;;;1999.90;999.90;;;;;;;-143.90;88.61;55027.81;2072764;28;20037;-82
2022/05/14 05:48:45;;;;;;;1999.90;999.90;;;;;;;-143.90;88.94;54988.13;2077625;28;20279;-80
2022/05/14 05:50:07;;;;;;;1999.90;999.90;;;;;;;-143.90;89.28;55023.84;2083043;28;20033;-80
2022/05/14 05:51:27;;;;;;;1999.90;999.90;;;;;;;-143.90;88.21;55067.53;2064364;28;20042;-79
2022/05/14 05:52:50;;;;;;;1999.90;999.90;;;;;;;-143.90;86.74;55043.72;2075591;28;20029;-81
2022/05/14 05:57:34;;;;;;;1999.90;999.90;;;;;;;-143.90;88.22;54996.06;2081017;28;20041;-80
2022/05/14 05:58:55;;;;;;;1999.90;999.90;;;;;;;-143.90;84.35;55007.97;2080618;28;20737;-80
2022/05/14 06:00:21;;;;;;;1999.90;999.90;;;;;;;-143.90;84.38;54958.34;2081662;28;20614;-80
2022/05/14 06:01:43;;;;;;;1999.90;999.90;;;;;;;-143.90;86.98;55043.72;2073090;28;20049;-80
2022/05/14 06:03:04;;;;;;;1999.90;999.90;;;;;;;-143.90;82.21;54964.28;2069951;28;20866;-80
2022/05/14 06:04:24;;;;;;;1999.90;999.90;;;;;;;-143.90;81.78;55049.66;2078728;28;20862;-80